createdAt,value
2019-06-07T00:01:52.557Z,86.50
2019-06-07T00:04:21.673Z,86.80
2019-06-07T00:06:51.038Z,87.30
2019-06-07T00:09:22.626Z,87.50
2019-06-07T00:11:50.792Z,87.70
2019-06-07T00:14:21.168Z,87.30
2019-06-07T00:16:50.459Z,85.90
2019-06-07T00:19:19.530Z,86.30
2019-06-07T00:24:21.706Z,88.80
2019-06-07T00:26:58.287Z,89.40
2019-06-07T00:29:21.968Z,88.80
2019-06-07T00:31:51.533Z,89.30
2019-06-07T00:34:22.989Z,90.00
2019-06-07T00:36:51.394Z,90.00
2019-06-07T00:39:25.172Z,90.30
2019-06-07T00:42:02.680Z,90.20
2019-06-07T00:44:31.743Z,90.20
2019-06-07T00:47:01.116Z,89.70
2019-06-07T00:49:40.372Z,89.20
2019-06-07T00:52:00.940Z,88.90
2019-06-07T00:54:29.973Z,89.10
2019-06-07T00:56:58.998Z,88.90
2019-06-07T00:59:29.484Z,89.00
2019-06-07T01:01:58.932Z,89.20
2019-06-07T01:04:28.368Z,88.60
2019-06-07T01:06:57.467Z,88.50
2019-06-07T01:09:26.842Z,87.80
2019-06-07T01:11:55.943Z,88.10
2019-06-07T01:14:28.149Z,87.80
2019-06-07T01:17:01.436Z,88.10
2019-06-07T01:19:27.871Z,88.10
2019-06-07T01:21:57.323Z,87.60
2019-06-07T01:24:27.628Z,87.10
2019-06-07T01:26:57.060Z,88.00
2019-06-07T01:29:29.505Z,88.10
2019-06-07T01:31:57.658Z,88.30
2019-06-07T01:34:26.987Z,88.50
2019-06-07T01:36:56.325Z,88.10
2019-06-07T01:39:29.791Z,88.70
2019-06-07T01:41:56.466Z,89.80
2019-06-07T01:44:28.105Z,89.00
2019-06-07T01:46:56.297Z,88.80
2019-06-07T01:49:27.753Z,88.60
2019-06-07T01:51:56.485Z,88.20
2019-06-07T01:54:52.265Z,88.50
2019-06-07T01:56:57.860Z,88.30
2019-06-07T01:59:28.567Z,88.80
2019-06-07T02:01:58.166Z,89.10
2019-06-07T02:04:31.911Z,89.20
2019-06-07T02:06:58.309Z,89.10
2019-06-07T02:09:29.851Z,89.20
2019-06-07T02:11:58.514Z,89.00
2019-06-07T02:14:30.611Z,89.10
2019-06-07T02:16:58.708Z,88.60
2019-06-07T02:19:32.707Z,89.20
2019-06-07T02:21:58.549Z,88.90
2019-06-07T02:24:29.636Z,89.20
2019-06-07T02:26:58.941Z,90.00
2019-06-07T02:29:31.218Z,89.10
2019-06-07T02:31:58.638Z,90.00
2019-06-07T02:34:31.858Z,89.90
2019-06-07T02:36:58.554Z,90.10
2019-06-07T02:39:30.434Z,90.10
2019-06-07T02:41:58.519Z,90.30
2019-06-07T02:44:30.624Z,90.20
2019-06-07T02:46:58.580Z,90.20
2019-06-07T02:49:31.348Z,90.20
2019-06-07T02:51:59.111Z,90.00
2019-06-07T02:54:33.643Z,90.10
2019-06-07T02:56:59.410Z,90.10
2019-06-07T03:00:00.150Z,89.60
2019-06-07T03:02:02.033Z,89.60
2019-06-07T03:04:34.915Z,89.90
2019-06-07T03:07:03.442Z,89.30
2019-06-07T03:09:36.402Z,89.20
2019-06-07T03:12:05.084Z,89.20
2019-06-07T03:14:37.034Z,89.30
2019-06-07T03:17:21.057Z,89.10
2019-06-07T03:19:52.991Z,88.70
2019-06-07T03:22:22.074Z,89.00
2019-06-07T03:24:52.074Z,88.10
2019-06-07T03:27:48.653Z,88.10
2019-06-07T03:29:52.322Z,88.20
2019-06-07T03:32:21.380Z,87.80
2019-06-07T03:34:50.715Z,87.90
2019-06-07T03:37:19.682Z,88.10
2019-06-07T03:39:48.760Z,87.70
2019-06-07T03:42:17.750Z,88.00
2019-06-07T03:44:46.776Z,87.50
2019-06-07T03:47:15.866Z,87.70
2019-06-07T03:49:44.918Z,87.40
2019-06-07T03:52:13.969Z,87.40
2019-06-07T03:54:43.523Z,87.20
2019-06-07T03:57:12.582Z,87.10
2019-06-07T03:59:41.727Z,87.10
2019-06-07T04:02:10.749Z,87.50
2019-06-07T04:04:40.061Z,87.70
2019-06-07T04:07:09.097Z,87.00
2019-06-07T04:09:42.496Z,87.30
2019-06-07T04:12:08.965Z,86.80
2019-06-07T04:14:40.874Z,86.30
2019-06-07T04:17:08.738Z,85.90
2019-06-07T04:19:42.108Z,86.20
2019-06-07T04:22:08.517Z,85.50
2019-06-07T04:24:40.174Z,85.90
2019-06-07T04:27:08.634Z,85.70
2019-06-07T04:30:02.959Z,85.00
2019-06-07T04:32:08.712Z,85.20
2019-06-07T04:34:42.590Z,85.60
2019-06-07T04:37:09.710Z,85.50
2019-06-07T04:39:44.682Z,85.50
2019-06-07T04:42:11.371Z,86.10
2019-06-07T04:44:42.877Z,86.20
2019-06-07T04:47:14.532Z,86.40
2019-06-07T04:49:44.492Z,85.90
2019-06-07T04:52:14.434Z,85.70
2019-06-07T04:54:45.887Z,84.80
2019-06-07T04:57:14.265Z,85.50
2019-06-07T05:02:14.142Z,85.50
2019-06-07T05:04:52.908Z,85.60
2019-06-07T05:07:22.001Z,85.50
2019-06-07T05:09:51.005Z,85.50
2019-06-07T05:12:20.062Z,85.80
2019-06-07T05:14:49.180Z,85.40
2019-06-07T05:17:18.206Z,85.20
2019-06-07T05:19:47.171Z,85.00
2019-06-07T05:22:16.324Z,85.20
2019-06-07T05:24:45.371Z,85.00
2019-06-07T05:27:14.462Z,85.00
2019-06-07T05:29:44.376Z,85.10
2019-06-07T05:32:15.117Z,85.00
2019-06-07T05:34:47.268Z,84.70
2019-06-07T05:37:15.261Z,84.90
2019-06-07T05:39:46.477Z,84.40
2019-06-07T05:42:15.629Z,84.50
2019-06-07T05:44:45.888Z,83.90
2019-06-07T05:47:15.423Z,83.70
2019-06-07T05:49:46.968Z,83.80
2019-06-07T05:52:15.484Z,83.90
2019-06-07T05:54:46.841Z,83.30
2019-06-07T05:57:15.300Z,83.40
2019-06-07T05:59:47.243Z,83.30
2019-06-07T06:02:22.451Z,82.60
2019-06-07T06:04:49.232Z,82.30
2019-06-07T06:07:16.781Z,82.10
2019-06-07T06:09:46.202Z,81.10
2019-06-07T06:12:33.445Z,80.90
2019-06-07T06:14:47.064Z,81.30
2019-06-07T06:17:16.260Z,80.70
2019-06-07T06:19:49.503Z,81.10
2019-06-07T06:22:16.081Z,80.30
2019-06-07T06:25:22.569Z,80.00
2019-06-07T06:27:55.677Z,79.60
2019-06-07T06:29:50.100Z,79.00
2019-06-07T06:34:50.662Z,79.20
2019-06-07T06:37:19.621Z,79.30
2019-06-07T06:39:50.175Z,77.90
2019-06-07T06:42:19.501Z,77.10
2019-06-07T06:44:53.609Z,76.70
2019-06-07T06:47:19.506Z,76.50
2019-06-07T06:49:50.004Z,76.70
2019-06-07T06:52:19.982Z,77.10
2019-06-07T06:54:59.271Z,75.50
2019-06-07T06:57:20.481Z,75.80
2019-06-07T06:59:52.512Z,76.00
2019-06-07T07:02:20.566Z,75.30
2019-06-07T07:04:53.522Z,74.60
2019-06-07T07:07:20.494Z,74.10
2019-06-07T07:09:54.964Z,73.40
2019-06-07T07:12:20.342Z,73.70
2019-06-07T07:14:52.164Z,73.50
2019-06-07T07:17:41.151Z,73.50
2019-06-07T07:19:53.078Z,73.10
2019-06-07T07:22:22.412Z,73.30
2019-06-07T07:24:54.745Z,72.20
2019-06-07T07:27:23.692Z,71.80
2019-06-07T07:30:29.338Z,71.70
2019-06-07T07:32:23.460Z,71.60
2019-06-07T07:35:00.029Z,71.20
2019-06-07T07:37:23.473Z,70.70
2019-06-07T07:40:00.700Z,70.20
2019-06-07T07:42:23.948Z,70.10
2019-06-07T07:44:55.077Z,68.70
2019-06-07T07:47:24.066Z,68.80
2019-06-07T07:49:58.572Z,67.20
2019-06-07T07:52:24.448Z,66.80
2019-06-07T07:54:56.609Z,66.30
2019-06-07T07:57:24.610Z,66.10
2019-06-07T08:00:05.975Z,66.50
2019-06-07T08:02:24.998Z,64.80
2019-06-07T08:05:16.602Z,64.60
2019-06-07T08:07:25.027Z,65.00
2019-06-07T08:09:59.592Z,64.70
2019-06-07T08:12:24.894Z,64.50
2019-06-07T08:14:58.616Z,63.00
2019-06-07T08:17:24.665Z,64.10
2019-06-07T08:19:54.998Z,64.00
2019-06-07T08:22:24.504Z,62.20
2019-06-07T08:24:55.314Z,62.30
2019-06-07T08:27:26.701Z,60.90
2019-06-07T08:30:15.666Z,61.60
2019-06-07T08:32:26.137Z,61.20
2019-06-07T08:35:01.739Z,59.90
2019-06-07T08:38:13.530Z,60.50
2019-06-07T08:40:01.059Z,60.00
2019-06-07T08:42:37.019Z,60.20
2019-06-07T08:45:03.607Z,59.10
2019-06-07T08:47:30.518Z,58.10
2019-06-07T08:50:07.087Z,58.10
2019-06-07T08:52:30.441Z,57.50
2019-06-07T08:55:03.387Z,57.20
2019-06-07T08:57:30.461Z,56.60
2019-06-07T09:00:06.512Z,56.50
2019-06-07T09:02:30.559Z,57.30
2019-06-07T09:05:05.490Z,55.90
2019-06-07T09:07:30.383Z,56.50
2019-06-07T09:10:03.467Z,55.50
2019-06-07T09:12:30.631Z,54.80
2019-06-07T09:15:18.292Z,55.40
2019-06-07T09:17:31.008Z,54.90
2019-06-07T09:20:06.343Z,55.70
2019-06-07T09:22:31.129Z,55.10
2019-06-07T09:25:06.788Z,54.90
2019-06-07T09:27:31.446Z,55.10
2019-06-07T09:30:05.751Z,55.10
2019-06-07T09:32:31.959Z,55.40
2019-06-07T09:35:08.128Z,55.00
2019-06-07T09:38:04.600Z,55.10
2019-06-07T09:40:19.595Z,55.00
2019-06-07T09:42:34.263Z,54.00
2019-06-07T09:45:06.556Z,54.20
2019-06-07T09:47:34.102Z,54.50
2019-06-07T09:50:06.010Z,54.30
2019-06-07T09:52:56.485Z,54.00
2019-06-07T09:55:19.609Z,53.90
2019-06-07T09:57:35.778Z,53.40
2019-06-07T10:00:38.247Z,53.40
2019-06-07T10:02:39.881Z,53.20
2019-06-07T10:05:13.965Z,53.90
2019-06-07T10:07:51.454Z,52.20
2019-06-07T10:12:41.772Z,51.60
2019-06-07T10:15:10.998Z,52.10
2019-06-07T10:17:40.344Z,51.50
2019-06-07T10:20:10.217Z,51.70
2019-06-07T10:22:39.258Z,52.60
2019-06-07T10:25:08.574Z,52.40
2019-06-07T10:27:37.889Z,51.50
2019-06-07T10:30:08.225Z,51.90
2019-06-07T10:32:37.527Z,51.70
2019-06-07T10:35:08.146Z,51.50
2019-06-07T10:37:37.921Z,51.70
2019-06-07T10:40:07.175Z,51.40
2019-06-07T10:42:36.222Z,50.90
2019-06-07T10:45:07.985Z,50.60
2019-06-07T10:47:37.080Z,50.30
2019-06-07T10:50:08.059Z,49.60
2019-06-07T10:52:46.085Z,49.90
2019-06-07T10:55:19.525Z,51.40
2019-06-07T10:57:48.582Z,49.80
2019-06-07T11:00:20.776Z,50.00
2019-06-07T11:02:49.923Z,50.40
2019-06-07T11:05:20.015Z,49.20
2019-06-07T11:07:49.075Z,48.90
2019-06-07T11:10:20.159Z,49.00
2019-06-07T11:12:49.055Z,49.00
2019-06-07T11:15:18.251Z,49.00
2019-06-07T11:18:08.295Z,48.20
2019-06-07T11:20:37.780Z,47.60
2019-06-07T11:23:08.159Z,47.60
2019-06-07T11:25:37.504Z,46.40
2019-06-07T11:28:06.636Z,46.60
2019-06-07T11:30:35.705Z,46.70
2019-06-07T11:33:06.304Z,46.40
2019-06-07T11:35:35.501Z,48.20
2019-06-07T11:38:04.576Z,46.20
2019-06-07T11:40:44.518Z,46.50
2019-06-07T11:43:16.347Z,45.30
2019-06-07T11:45:46.502Z,45.20
2019-06-07T11:48:17.600Z,45.60
2019-06-07T11:50:47.536Z,46.60
2019-06-07T11:53:28.203Z,46.50
2019-06-07T11:55:57.884Z,46.30
2019-06-07T11:58:30.827Z,45.30
2019-06-07T12:01:00.751Z,44.60
2019-06-07T12:03:30.256Z,43.60
2019-06-07T12:05:59.567Z,43.30
2019-06-07T12:08:29.105Z,42.60
2019-06-07T12:10:58.368Z,43.40
2019-06-07T12:13:28.253Z,42.10
2019-06-07T12:16:29.823Z,40.00
2019-06-07T12:18:59.110Z,39.40
2019-06-07T12:21:46.631Z,41.10
2019-06-07T12:24:16.211Z,42.00
2019-06-07T12:26:45.408Z,42.20
2019-06-07T12:29:14.930Z,43.00
2019-06-07T12:31:44.023Z,42.40
2019-06-07T12:34:13.321Z,41.80
2019-06-07T12:36:42.928Z,43.30
2019-06-07T12:39:12.022Z,42.10
2019-06-07T12:41:45.775Z,42.00
2019-06-07T12:44:14.915Z,43.70
2019-06-07T12:46:44.742Z,43.50
2019-06-07T12:49:15.014Z,39.70
2019-06-07T12:51:47.201Z,40.80
2019-06-07T12:54:17.601Z,40.40
2019-06-07T12:56:52.224Z,42.10
2019-06-07T12:59:24.193Z,41.20
2019-06-07T13:01:54.984Z,41.90
2019-06-07T13:04:24.983Z,41.30
2019-06-07T13:06:57.692Z,40.50
2019-06-07T13:09:28.077Z,41.60
2019-06-07T13:11:58.923Z,39.70
2019-06-07T13:14:28.636Z,40.10
2019-06-07T13:16:58.648Z,40.70
2019-06-07T13:19:28.599Z,41.00
2019-06-07T13:21:58.144Z,41.70
2019-06-07T13:24:33.357Z,41.80
2019-06-07T13:27:08.548Z,40.90
2019-06-07T13:29:37.739Z,40.00
2019-06-07T13:32:07.155Z,40.00
2019-06-07T13:34:37.006Z,39.90
2019-06-07T13:37:14.574Z,39.30
2019-06-07T13:39:47.422Z,38.60
2019-06-07T13:42:18.326Z,38.90
2019-06-07T13:44:47.979Z,40.30
2019-06-07T13:47:18.932Z,39.30
2019-06-07T13:50:01.183Z,38.80
2019-06-07T13:52:30.388Z,40.50
2019-06-07T13:55:02.127Z,40.40
2019-06-07T13:57:30.656Z,40.60
2019-06-07T14:00:00.039Z,41.40
2019-06-07T14:02:29.860Z,40.30
2019-06-07T14:04:59.254Z,40.00
2019-06-07T14:07:29.693Z,40.00
2019-06-07T14:09:59.155Z,38.20
2019-06-07T14:12:28.276Z,37.40
2019-06-07T14:14:57.314Z,37.00
2019-06-07T14:17:28.329Z,36.40
2019-06-07T14:19:57.543Z,35.20
2019-06-07T14:22:26.968Z,34.90
2019-06-07T14:24:56.171Z,33.90
2019-06-07T14:27:27.557Z,33.40
2019-06-07T14:29:56.823Z,36.10
2019-06-07T14:32:26.633Z,37.10
2019-06-07T14:34:55.783Z,38.10
2019-06-07T14:37:25.015Z,37.20
2019-06-07T14:39:54.178Z,37.30
2019-06-07T14:42:23.450Z,37.70
2019-06-07T14:44:52.709Z,39.80
2019-06-07T14:47:21.831Z,40.30
2019-06-07T14:49:50.966Z,40.40
2019-06-07T14:52:20.146Z,40.90
2019-06-07T14:54:49.322Z,40.70
2019-06-07T14:57:18.798Z,41.50
2019-06-07T14:59:48.366Z,42.70
2019-06-07T15:02:17.592Z,42.70
2019-06-07T15:04:47.706Z,43.60
2019-06-07T15:07:17.038Z,44.80
2019-06-07T15:09:46.103Z,45.20
2019-06-07T15:12:24.705Z,46.60
2019-06-07T15:14:48.061Z,51.10
2019-06-07T15:17:17.442Z,54.60
2019-06-07T15:19:46.485Z,57.20
2019-06-07T15:22:15.688Z,58.60
2019-06-07T15:24:45.132Z,60.70
2019-06-07T15:27:15.222Z,58.80
2019-06-07T15:29:44.331Z,59.00
2019-06-07T15:32:20.248Z,58.10
2019-06-07T15:34:49.667Z,58.80
2019-06-07T15:37:18.877Z,59.90
2019-06-07T15:39:48.060Z,58.10
2019-06-07T15:42:17.284Z,58.00
2019-06-07T15:44:46.487Z,60.10
2019-06-07T15:47:15.615Z,66.10
2019-06-07T15:49:44.830Z,71.80
2019-06-07T15:52:14.092Z,76.20
2019-06-07T15:54:43.191Z,80.00
2019-06-07T15:57:12.306Z,78.80
2019-06-07T15:59:41.580Z,78.20
2019-06-07T16:02:11.622Z,75.50
2019-06-07T16:04:41.973Z,77.10
2019-06-07T16:07:11.357Z,75.00
2019-06-07T16:09:40.725Z,75.50
2019-06-07T16:12:09.891Z,75.60
2019-06-07T16:14:39.264Z,72.40
2019-06-07T16:17:09.016Z,76.80
2019-06-07T16:19:42.858Z,75.20
2019-06-07T16:22:09.139Z,71.00
2019-06-07T16:24:39.757Z,70.10
2019-06-07T16:27:09.156Z,65.20
2019-06-07T16:29:38.614Z,63.00
2019-06-07T16:32:07.752Z,59.40
2019-06-07T16:34:37.857Z,57.40
2019-06-07T16:37:07.974Z,56.70
2019-06-07T16:39:38.115Z,57.00
2019-06-07T16:42:07.298Z,57.30
2019-06-07T16:44:36.466Z,57.40
2019-06-07T16:47:05.579Z,57.60
2019-06-07T16:49:34.742Z,54.10
2019-06-07T16:52:03.884Z,53.90
2019-06-07T16:54:35.531Z,53.70
2019-06-07T16:57:03.922Z,52.30
2019-06-07T16:59:33.011Z,54.60
2019-06-07T17:02:02.252Z,54.70
2019-06-07T17:04:31.406Z,54.20
2019-06-07T17:07:00.638Z,53.40
2019-06-07T17:09:29.744Z,54.10
2019-06-07T17:11:58.977Z,54.50
2019-06-07T17:14:28.305Z,53.70
2019-06-07T17:16:57.457Z,54.10
2019-06-07T17:19:26.545Z,53.50
2019-06-07T17:21:56.031Z,53.20
2019-06-07T17:24:26.674Z,53.60
2019-06-07T17:26:55.396Z,53.30
2019-06-07T17:29:24.814Z,53.90
2019-06-07T17:31:54.430Z,54.70
2019-06-07T17:34:23.504Z,54.50
2019-06-07T17:36:52.709Z,54.00
2019-06-07T17:39:21.973Z,52.90
2019-06-07T17:42:01.636Z,54.80
2019-06-07T17:44:23.028Z,54.00
2019-06-07T17:46:52.144Z,53.70
2019-06-07T17:49:21.411Z,53.80
2019-06-07T17:51:52.028Z,54.20
2019-06-07T17:54:21.638Z,54.80
2019-06-07T17:56:50.766Z,54.90
2019-06-07T17:59:19.879Z,55.50
2019-06-07T18:02:12.757Z,55.20
2019-06-07T18:04:20.434Z,55.60
2019-06-07T18:06:53.626Z,55.50
2019-06-07T18:09:24.899Z,55.50
2019-06-07T18:11:57.781Z,54.60
2019-06-07T18:14:30.034Z,53.90
2019-06-07T18:17:04.276Z,54.30
2019-06-07T18:19:33.603Z,54.40
2019-06-07T18:22:02.759Z,54.70
2019-06-07T18:24:32.009Z,54.50
2019-06-07T18:27:01.167Z,54.20
2019-06-07T18:29:30.430Z,55.30
2019-06-07T18:32:00.351Z,55.00
2019-06-07T18:34:29.507Z,55.30
2019-06-07T18:36:59.311Z,54.90
2019-06-07T18:39:28.434Z,54.30
2019-06-07T18:41:57.570Z,53.40
2019-06-07T18:44:26.630Z,53.40
2019-06-07T18:46:55.759Z,53.70
2019-06-07T18:49:27.321Z,53.60
2019-06-07T18:52:31.213Z,53.10
2019-06-07T18:55:00.385Z,52.70
2019-06-07T18:57:29.404Z,52.50
2019-06-07T18:59:58.893Z,51.50
2019-06-07T19:02:28.199Z,51.70
2019-06-07T19:04:58.426Z,51.10
2019-06-07T19:07:27.709Z,49.50
2019-06-07T19:09:57.540Z,49.60
2019-06-07T19:12:26.742Z,50.10
2019-06-07T19:14:57.594Z,49.80
2019-06-07T19:17:26.829Z,49.40
2019-06-07T19:19:56.291Z,48.70
2019-06-07T19:22:25.519Z,48.40
2019-06-07T19:24:54.693Z,48.60
2019-06-07T19:27:23.759Z,49.40
2019-06-07T19:29:52.921Z,48.90
2019-06-07T19:32:22.325Z,48.80
2019-06-07T19:34:53.144Z,49.10
2019-06-07T19:37:22.859Z,48.90
2019-06-07T19:39:53.825Z,48.70
2019-06-07T19:42:23.002Z,49.20
2019-06-07T19:44:58.211Z,49.30
2019-06-07T19:47:23.215Z,49.40
2019-06-07T19:49:54.909Z,49.70
2019-06-07T19:52:28.045Z,49.80
2019-06-07T19:54:57.563Z,49.70
2019-06-07T19:57:27.130Z,49.50
2019-06-07T19:59:57.466Z,50.10
2019-06-07T20:02:26.775Z,49.80
2019-06-07T20:04:59.460Z,50.30
2019-06-07T20:07:26.608Z,50.30
2019-06-07T20:09:56.495Z,50.90
2019-06-07T20:12:25.846Z,50.60
2019-06-07T20:15:13.601Z,50.80
2019-06-07T20:17:25.589Z,50.90
2019-06-07T20:19:54.735Z,51.00
2019-06-07T20:22:23.786Z,51.20
2019-06-07T20:24:52.923Z,51.60
2019-06-07T20:27:22.104Z,51.60
2019-06-07T20:29:51.479Z,52.00
2019-06-07T20:32:20.647Z,52.30
2019-06-07T20:34:49.723Z,52.30
2019-06-07T20:37:18.769Z,52.40
2019-06-07T20:39:47.830Z,52.40
2019-06-07T20:42:17.008Z,52.70
2019-06-07T20:44:46.103Z,52.50
2019-06-07T20:47:15.390Z,52.80
2019-06-07T20:49:44.509Z,53.40
2019-06-07T20:52:13.583Z,53.10
2019-06-07T20:54:42.758Z,53.90
2019-06-07T20:57:11.823Z,54.00
2019-06-07T20:59:40.879Z,54.10
2019-06-07T21:02:09.912Z,54.20
2019-06-07T21:04:39.027Z,54.10
2019-06-07T21:07:10.004Z,54.50
2019-06-07T21:09:39.371Z,54.80
2019-06-07T21:12:09.939Z,54.60
2019-06-07T21:14:39.090Z,55.60
2019-06-07T21:17:08.303Z,55.20
2019-06-07T21:19:37.401Z,54.60
2019-06-07T21:22:06.820Z,54.80
2019-06-07T21:24:35.975Z,54.90
2019-06-07T21:27:05.384Z,55.30
2019-06-07T21:29:34.554Z,55.20
2019-06-07T21:32:03.587Z,55.40
2019-06-07T21:34:32.763Z,55.60
2019-06-07T21:37:01.814Z,55.70
2019-06-07T21:39:30.885Z,55.50
2019-06-07T21:41:59.915Z,55.50
2019-06-07T21:44:28.980Z,55.40
2019-06-07T21:46:58.077Z,55.40
2019-06-07T21:49:27.130Z,55.40
2019-06-07T21:51:57.677Z,55.10
2019-06-07T21:54:26.726Z,55.00
2019-06-07T21:56:55.818Z,54.80
2019-06-07T21:59:24.902Z,54.90
2019-06-07T22:01:54.286Z,55.10
2019-06-07T22:04:23.346Z,55.20
2019-06-07T22:06:52.896Z,55.30
2019-06-07T22:09:21.956Z,54.70
2019-06-07T22:11:50.834Z,55.30
2019-06-07T22:14:19.871Z,55.10
2019-06-07T22:16:48.968Z,55.20
2019-06-07T22:19:17.923Z,55.50
2019-06-07T22:22:01.691Z,55.70
2019-06-07T22:24:17.817Z,55.80
2019-06-07T22:26:46.886Z,55.70
2019-06-07T22:29:15.934Z,55.80
2019-06-07T22:31:44.958Z,55.70
2019-06-07T22:34:15.105Z,55.70
2019-06-07T22:36:44.465Z,55.90
2019-06-07T22:39:13.936Z,56.00
2019-06-07T22:41:43.265Z,55.90
2019-06-07T22:44:12.802Z,56.00
2019-06-07T22:46:41.933Z,55.90
2019-06-07T22:49:11.370Z,56.10
2019-06-07T22:51:40.497Z,56.00
2019-06-07T22:54:09.628Z,56.10
2019-06-07T22:56:57.754Z,56.00
2019-06-07T22:59:27.257Z,56.30
2019-06-07T23:01:56.326Z,56.30
2019-06-07T23:04:25.378Z,56.60
2019-06-07T23:06:54.745Z,56.40
2019-06-07T23:09:23.810Z,56.30
2019-06-07T23:11:56.230Z,56.30
2019-06-07T23:14:25.815Z,56.20
2019-06-07T23:16:56.221Z,55.90
2019-06-07T23:19:25.606Z,55.60
2019-06-07T23:21:54.650Z,55.50
2019-06-07T23:24:23.613Z,55.50
2019-06-07T23:26:52.696Z,55.60
2019-06-07T23:29:21.731Z,55.50
2019-06-07T23:31:50.879Z,55.50
2019-06-07T23:34:21.009Z,55.60
2019-06-07T23:36:50.190Z,56.00
2019-06-07T23:39:21.791Z,56.10
2019-06-07T23:41:50.264Z,56.50
2019-06-07T23:44:19.385Z,56.50
2019-06-07T23:46:48.495Z,56.60
2019-06-07T23:49:17.648Z,56.60
2019-06-07T23:51:46.803Z,57.00
2019-06-07T23:54:15.893Z,57.10
2019-06-07T23:56:44.904Z,57.30
2019-06-07T23:59:14.197Z,57.30
